Time;durP1;ratioP1;P1;durP2;ratioP2;P2;SDS_P1;SDS_P2;PMS_P1;PMS_P2;Temp;Humidity;BMP_temperature;BMP_pressure;BME280_temperature;BME280_humidity;BME280_pressure;Samples;Min_cycle;Max_cycle;Signal;HPM_P1;HPM_P2
2022/04/23 00:00:51;;;;;;;;;;;;;;;14.05;69.07;93916.00;4884360;29;19928;-82
2022/04/23 00:03:18;;;;;;;;;;;;;;;14.18;68.44;93916.25;4883387;29;19927;-82
2022/04/23 00:11:59;;;;;;;;;;;;;;;14.43;66.29;93910.81;4883163;29;19976;-82
2022/04/23 00:14:26;;;;;;;;;;;;;;;14.32;68.76;93905.91;4883208;29;19933;-81
2022/04/23 00:16:53;;;;;;;;;;;;;;;14.42;64.66;93895.94;4883422;29;19928;-83
2022/04/23 00:19:20;;;;;;;;;;;;;;;14.43;65.63;93902.88;4882868;29;20368;-82
2022/04/23 00:21:47;;;;;;;;;;;;;;;14.28;66.33;93892.25;4883529;29;19935;-82
2022/04/23 00:24:13;;;;;;;;;;;;;;;14.19;65.94;93917.91;4882996;29;19928;-82
2022/04/23 00:26:40;;;;;;;;;;;;;;;14.28;66.91;93921.28;4882897;29;19935;-82
2022/04/23 00:29:08;;;;;;;;;;;;;;;14.28;66.83;93889.63;4883062;29;19928;-82
2022/04/23 00:31:36;;;;;;;;;;;;;;;13.97;67.39;93894.97;4883404;29;19931;-82
2022/04/23 00:34:03;;;;;;;;;;;;;;;14.13;66.62;93902.75;4882669;29;19928;-82
2022/04/23 00:36:29;;;;;;;;;;;;;;;14.21;66.07;93905.34;4866139;29;19928;-82
2022/04/23 00:38:56;;;;;;;;;;;;;;;14.24;66.14;93904.16;4882626;29;19943;-82
2022/04/23 00:44:09;;;;;;;;;;;;;;;14.11;65.75;93899.47;4882637;29;19935;-82
2022/04/23 00:46:35;;;;;;;;;;;;;;;14.31;63.35;93904.28;4882371;29;19938;-82
2022/04/23 00:49:03;;;;;;;;;;;;;;;14.59;61.41;93901.94;4882161;29;20283;-82
2022/04/23 00:51:30;;;;;;;;;;;;;;;14.85;59.69;93892.59;4882652;29;19927;-82
2022/04/23 00:53:57;;;;;;;;;;;;;;;15.11;59.42;93881.59;4886428;29;19928;-82
2022/04/23 00:56:24;;;;;;;;;;;;;;;15.25;61.59;93885.22;4901058;29;19934;-81
2022/04/23 00:58:51;;;;;;;;;;;;;;;15.21;62.50;93881.31;4901603;29;19928;-82
2022/04/23 01:01:23;;;;;;;;;;;;;;;15.04;62.85;93882.53;4900876;29;19928;-82
2022/04/23 01:52:36;;;;;;;;;;;;;;;13.76;66.57;93910.56;4899486;29;20056;-82
2022/04/23 01:55:02;;;;;;;;;;;;;;;13.67;66.94;93922.16;4898093;29;19928;-82
2022/04/23 01:57:29;;;;;;;;;;;;;;;13.56;66.69;93924.16;4900409;29;20013;-82
2022/04/23 01:59:56;;;;;;;;;;;;;;;13.63;64.86;93921.69;4899176;29;19938;-81
2022/04/23 02:02:23;;;;;;;;;;;;;;;13.78;65.28;93934.94;4900146;29;19931;-81
2022/04/23 02:04:50;;;;;;;;;;;;;;;13.90;63.74;93934.41;4900234;29;19991;-82
2022/04/23 02:07:16;;;;;;;;;;;;;;;14.10;63.47;93942.66;4899672;29;19932;-82
2022/04/23 02:09:44;;;;;;;;;;;;;;;14.22;62.93;93933.38;4883060;29;20290;-81
2022/04/23 02:12:11;;;;;;;;;;;;;;;14.25;62.82;93932.19;4897807;29;19927;-81
2022/04/23 02:14:38;;;;;;;;;;;;;;;14.24;63.10;93931.38;4882409;29;19934;-82
2022/04/23 02:17:04;;;;;;;;;;;;;;;14.06;63.76;93940.56;4899414;29;20418;-82
2022/04/23 02:19:32;;;;;;;;;;;;;;;14.23;63.65;93958.75;4900098;29;20287;-82
2022/04/23 02:21:58;;;;;;;;;;;;;;;14.30;63.80;93947.50;4899264;29;20448;-82
2022/04/23 02:24:25;;;;;;;;;;;;;;;13.47;66.59;93942.84;4882271;29;19928;-82
2022/04/23 02:26:53;;;;;;;;;;;;;;;13.13;67.94;93940.44;4899306;29;19927;-81
2022/04/23 02:29:19;;;;;;;;;;;;;;;13.29;67.60;93949.13;4899893;29;20387;-82
2022/04/23 02:31:46;;;;;;;;;;;;;;;13.50;67.29;93961.75;4899635;29;19931;-82
2022/04/23 02:34:12;;;;;;;;;;;;;;;13.62;66.58;93952.50;4899418;29;19953;-82
2022/04/23 02:36:39;;;;;;;;;;;;;;;13.32;67.48;93950.66;4899491;29;19928;-82
2022/04/23 02:39:06;;;;;;;;;;;;;;;13.24;67.87;93955.91;4897452;29;19928;-82
2022/04/23 02:41:32;;;;;;;;;;;;;;;13.40;67.49;93969.06;4899123;29;19934;-82
2022/04/23 02:44:00;;;;;;;;;;;;;;;13.65;67.04;93959.25;4899649;29;20287;-81
2022/04/23 02:46:27;;;;;;;;;;;;;;;13.82;66.45;93952.06;4899323;29;20283;-81
2022/04/23 02:48:55;;;;;;;;;;;;;;;13.94;66.07;93958.63;4898954;29;19927;-81
2022/04/23 02:57:37;;;;;;;;;;;;;;;14.23;65.29;93961.41;4877308;29;20012;-81
2022/04/23 03:00:06;;;;;;;;;;;;;;;14.29;64.73;93959.06;4862454;29;19928;-82
2022/04/23 03:02:36;;;;;;;;;;;;;;;14.38;64.62;93947.44;4861811;29;19935;-81
2022/04/23 03:05:04;;;;;;;;;;;;;;;14.37;64.64;93940.50;4861568;29;20019;-81
2022/04/23 03:07:31;;;;;;;;;;;;;;;14.39;64.08;93954.34;4861804;29;19984;-81
2022/04/23 03:22:11;;;;;;;;;;;;;;;14.26;65.16;93925.91;4861104;29;19964;-81
2022/04/23 03:24:38;;;;;;;;;;;;;;;14.13;65.93;93923.03;4861313;29;19928;-81
2022/04/23 03:27:06;;;;;;;;;;;;;;;14.14;66.56;93930.78;4861611;29;20024;-81
2022/04/23 03:29:33;;;;;;;;;;;;;;;14.16;66.54;93935.88;4861302;29;19984;-81
2022/04/23 03:35:04;;;;;;;;;;;;;;;14.21;67.04;93937.00;4860920;29;19932;-81
2022/04/23 03:37:33;;;;;;;;;;;;;;;14.25;67.51;93922.47;4861549;29;19978;-81
2022/04/23 03:40:00;;;;;;;;;;;;;;;14.24;66.88;93926.09;4861248;29;19956;-81
2022/04/23 03:42:27;;;;;;;;;;;;;;;14.19;67.17;93932.91;4861171;29;19936;-81
2022/04/23 03:44:53;;;;;;;;;;;;;;;14.18;67.72;93942.66;4861441;29;19951;-80
2022/04/23 03:47:20;;;;;;;;;;;;;;;14.19;68.39;93946.91;4861494;29;19935;-80
2022/04/23 03:49:46;;;;;;;;;;;;;;;14.06;67.42;93951.13;4861673;29;19932;-83
2022/04/23 03:52:13;;;;;;;;;;;;;;;13.88;67.44;93948.75;4861936;29;19932;-79
2022/04/23 03:54:41;;;;;;;;;;;;;;;13.95;71.24;93942.59;4861437;29;19928;-79
2022/04/23 03:57:08;;;;;;;;;;;;;;;14.61;67.74;93950.91;4861963;29;19928;-79
2022/04/23 03:59:35;;;;;;;;;;;;;;;14.82;64.20;93955.53;4889285;29;20006;-79
2022/04/23 04:02:04;;;;;;;;;;;;;;;14.89;63.68;93972.31;4898975;29;19970;-79
2022/04/23 04:04:31;;;;;;;;;;;;;;;14.83;63.34;93979.13;4898414;29;19927;-79
2022/04/23 04:06:58;;;;;;;;;;;;;;;14.81;64.35;93981.13;4898272;29;20005;-78
2022/04/23 04:09:24;;;;;;;;;;;;;;;14.76;64.67;93982.66;4898504;29;19927;-79
2022/04/23 04:12:06;;;;;;;;;;;;;;;14.74;65.08;93984.63;4898649;29;19927;-79
2022/04/23 04:14:34;;;;;;;;;;;;;;;14.71;65.88;93990.28;4899054;29;19927;-80
2022/04/23 04:17:02;;;;;;;;;;;;;;;14.72;65.65;93995.38;4898741;29;19976;-79
2022/04/23 04:19:29;;;;;;;;;;;;;;;14.70;65.75;93994.75;4898681;29;19935;-79
2022/04/23 04:21:56;;;;;;;;;;;;;;;14.64;66.08;93997.28;4898740;29;19931;-79
2022/04/23 04:24:23;;;;;;;;;;;;;;;14.56;66.74;93993.69;4901844;29;20298;-79
2022/04/23 04:26:53;;;;;;;;;;;;;;;14.48;67.66;93993.78;4902405;29;19927;-79
2022/04/23 04:29:19;;;;;;;;;;;;;;;14.45;67.64;93993.28;4901522;29;20363;-79
2022/04/23 04:31:50;;;;;;;;;;;;;;;14.45;68.27;93982.72;4901829;29;20404;-79
2022/04/23 04:34:17;;;;;;;;;;;;;;;14.48;68.77;93991.13;4901817;29;19995;-79
2022/04/23 04:36:43;;;;;;;;;;;;;;;14.37;67.75;93988.03;4901420;29;20306;-79
2022/04/23 04:39:10;;;;;;;;;;;;;;;14.32;68.12;93990.38;4890561;29;19927;-79
2022/04/23 04:41:37;;;;;;;;;;;;;;;14.36;68.78;94000.41;4901307;29;19938;-79
2022/04/23 04:44:05;;;;;;;;;;;;;;;14.41;69.63;94000.69;4901725;29;19979;-79
2022/04/23 04:46:32;;;;;;;;;;;;;;;14.42;68.84;94007.59;4901176;29;19928;-79
2022/04/23 04:48:59;;;;;;;;;;;;;;;14.43;68.61;94004.00;4901620;29;19928;-79
2022/04/23 04:51:25;;;;;;;;;;;;;;;14.46;68.91;94008.16;4897481;29;20304;-78
2022/04/23 04:53:53;;;;;;;;;;;;;;;14.46;68.85;94002.88;4914938;29;19928;-79
2022/04/23 04:56:19;;;;;;;;;;;;;;;14.46;68.16;93992.31;4895466;29;19928;-79
2022/04/23 04:58:46;;;;;;;;;;;;;;;14.62;70.02;94002.72;4882523;29;19935;-80
2022/04/23 05:01:14;;;;;;;;;;;;;;;14.82;70.17;93998.63;4882362;29;20343;-79
2022/04/23 05:03:41;;;;;;;;;;;;;;;15.04;69.87;94001.41;4882003;29;19928;-79
2022/04/23 05:06:08;;;;;;;;;;;;;;;15.36;70.45;94010.84;4882738;29;19932;-80
2022/04/23 05:08:35;;;;;;;;;;;;;;;15.60;65.71;94005.31;4882284;29;19928;-81
2022/04/23 05:11:02;;;;;;;;;;;;;;;15.86;66.98;94020.72;4881981;29;20295;-82
2022/04/23 05:13:28;;;;;;;;;;;;;;;16.33;64.87;94028.25;4882061;29;19935;-82
2022/04/23 05:15:55;;;;;;;;;;;;;;;16.77;63.94;94035.28;4882206;29;19928;-82
2022/04/23 05:18:23;;;;;;;;;;;;;;;17.02;61.54;94041.81;4882440;29;19932;-81
2022/04/23 05:36:06;;;;;;;;;;;;;;;15.16;64.37;94087.19;4881154;29;19930;-80
2022/04/23 05:38:34;;;;;;;;;;;;;;;15.09;65.77;94088.91;4881820;29;19934;-79
2022/04/23 05:41:01;;;;;;;;;;;;;;;15.04;66.52;94096.53;4881911;29;19928;-80
2022/04/23 05:43:27;;;;;;;;;;;;;;;14.96;66.96;94096.56;4881467;29;20035;-81
2022/04/23 05:45:57;;;;;;;;;;;;;;;14.94;67.69;94090.66;4881359;29;19928;-81
2022/04/23 05:48:23;;;;;;;;;;;;;;;14.95;67.74;94093.13;4881869;29;20268;-80
2022/04/23 05:50:50;;;;;;;;;;;;;;;14.94;67.44;94091.47;4881263;29;19928;-80
2022/04/23 05:53:18;;;;;;;;;;;;;;;14.95;67.91;94092.28;4881462;29;19935;-80
2022/04/23 05:55:45;;;;;;;;;;;;;;;14.95;68.31;94087.81;4881671;29;19934;-80
2022/04/23 05:58:12;;;;;;;;;;;;;;;15.02;70.33;94094.03;4881746;29;19971;-80
2022/04/23 06:00:39;;;;;;;;;;;;;;;15.05;69.35;94080.50;4881118;29;19935;-85
2022/04/23 06:03:05;;;;;;;;;;;;;;;15.34;67.53;94081.59;4881861;29;20256;-81
2022/04/23 06:05:32;;;;;;;;;;;;;;;15.75;66.39;94076.75;4881586;29;19928;-82
2022/04/23 06:17:10;;;;;;;;;;;;;;;16.59;64.71;94086.00;4899638;29;19926;-79
2022/04/23 06:19:37;;;;;;;;;;;;;;;16.83;63.60;94087.53;4899737;29;19927;-81
2022/04/23 06:22:04;;;;;;;;;;;;;;;17.08;63.38;94093.28;4899874;29;20557;-83
2022/04/23 06:24:30;;;;;;;;;;;;;;;17.44;62.31;94097.69;4899510;29;19927;-81
2022/04/23 06:26:57;;;;;;;;;;;;;;;17.66;59.68;94091.34;4899735;29;19927;-81
2022/04/23 06:29:24;;;;;;;;;;;;;;;18.08;58.73;94084.28;4899224;29;20383;-81
2022/04/23 06:31:53;;;;;;;;;;;;;;;18.56;57.62;94083.31;4897789;29;19950;-82
2022/04/23 06:34:21;;;;;;;;;;;;;;;19.03;55.52;94086.94;4899605;29;20368;-82
2022/04/23 06:36:48;;;;;;;;;;;;;;;19.44;54.31;94084.16;4899878;29;19934;-82
2022/04/23 06:39:14;;;;;;;;;;;;;;;19.63;52.46;94082.53;4898877;29;19928;-82
2022/04/23 06:41:41;;;;;;;;;;;;;;;20.03;51.50;94080.66;4899342;29;20395;-82
2022/04/23 06:44:07;;;;;;;;;;;;;;;20.30;51.12;94081.44;4899028;29;20307;-81
2022/04/23 06:46:34;;;;;;;;;;;;;;;20.46;51.51;94074.84;4898825;29;20383;-82
2022/04/23 06:49:05;;;;;;;;;;;;;;;20.61;50.45;94071.94;4898859;29;19927;-82
2022/04/23 07:20:16;;;;;;;;;;;;;;;22.75;44.63;94088.53;4858382;29;19927;-82
2022/04/23 07:24:02;;;;;;;;;;;;;;;22.81;43.84;94084.97;4880200;29;20328;-82
2022/04/23 07:25:30;;;;;;;;;;;;;;;22.92;43.85;94102.16;4879912;29;19979;-82
2022/04/23 07:27:56;;;;;;;;;;;;;;;22.52;44.35;94099.06;4880205;29;19928;-82
2022/04/23 07:30:23;;;;;;;;;;;;;;;22.59;50.19;94102.53;4879817;29;20018;-81
2022/04/23 07:33:05;;;;;;;;;;;;;;;22.46;45.00;94113.34;4880002;29;19932;-82
2022/04/23 07:38:18;;;;;;;;;;;;;;;20.92;49.31;94113.84;4879997;29;19935;-81
2022/04/23 07:40:45;;;;;;;;;;;;;;;20.76;50.90;94124.97;4880850;29;19928;-82
2022/04/23 07:43:14;;;;;;;;;;;;;;;20.61;51.77;94126.06;4880331;29;19927;-82
2022/04/23 07:45:41;;;;;;;;;;;;;;;20.42;52.07;94127.75;4880729;29;19928;-81
2022/04/23 07:48:08;;;;;;;;;;;;;;;20.33;53.46;94128.97;4880520;29;19928;-84
2022/04/23 07:50:37;;;;;;;;;;;;;;;19.93;54.15;94132.69;4880200;29;19928;-84
2022/04/23 07:53:04;;;;;;;;;;;;;;;19.69;56.74;94142.16;4880408;29;19928;-83
2022/04/23 07:55:36;;;;;;;;;;;;;;;19.66;56.44;94138.06;4879830;29;19928;-83
2022/04/23 07:58:04;;;;;;;;;;;;;;;19.68;58.93;94140.50;4881788;29;19928;-83
2022/04/23 08:00:31;;;;;;;;;;;;;;;19.71;57.56;94134.78;4883783;29;19935;-83
2022/04/23 08:02:58;;;;;;;;;;;;;;;19.39;59.10;94137.16;4883361;29;19935;-83
2022/04/23 08:05:25;;;;;;;;;;;;;;;19.19;59.22;94131.78;4883705;29;19997;-83
2022/04/23 08:07:53;;;;;;;;;;;;;;;19.14;60.66;94136.91;4883398;29;19928;-82
2022/04/23 08:10:19;;;;;;;;;;;;;;;19.14;59.90;94142.22;4883584;29;19932;-83
2022/04/23 08:12:46;;;;;;;;;;;;;;;18.95;59.29;94145.63;4883233;29;20375;-83
2022/04/23 08:15:13;;;;;;;;;;;;;;;18.98;61.13;94142.56;4883082;29;19927;-83
2022/04/23 08:17:39;;;;;;;;;;;;;;;19.06;62.25;94152.19;4883653;29;20027;-82
2022/04/23 08:20:07;;;;;;;;;;;;;;;19.10;61.03;94145.50;4883106;29;19928;-83
2022/04/23 08:22:34;;;;;;;;;;;;;;;18.96;60.80;94141.94;4882880;29;19966;-80
2022/04/23 08:25:02;;;;;;;;;;;;;;;18.95;65.08;94150.94;4882957;29;19928;-81
2022/04/23 08:27:29;;;;;;;;;;;;;;;18.47;63.59;94158.06;4883143;29;19939;-80
2022/04/23 08:32:40;;;;;;;;;;;;;;;18.40;67.20;94157.19;4883145;29;19939;-82
2022/04/23 08:35:07;;;;;;;;;;;;;;;18.42;70.97;94155.16;4882788;29;20391;-81
2022/04/23 08:37:34;;;;;;;;;;;;;;;18.53;66.84;94151.97;4882671;29;19928;-82
2022/04/23 08:40:02;;;;;;;;;;;;;;;18.58;68.30;94155.69;4883078;29;19974;-80
2022/04/23 08:42:30;;;;;;;;;;;;;;;18.52;65.34;94163.63;4882932;29;19935;-82
2022/04/23 08:44:57;;;;;;;;;;;;;;;18.62;73.86;94152.63;4882534;29;20372;-82
2022/04/23 08:47:24;;;;;;;;;;;;;;;18.51;65.50;94152.16;4882863;29;20018;-82
2022/04/23 08:49:53;;;;;;;;;;;;;;;18.48;66.66;94160.50;4882591;29;19928;-82
2022/04/23 08:52:29;;;;;;;;;;;;;;;18.31;66.74;94167.16;4882383;29;19934;-81
2022/04/23 08:54:57;;;;;;;;;;;;;;;18.38;66.48;94170.69;4882656;29;19927;-81
2022/04/23 08:57:26;;;;;;;;;;;;;;;18.39;70.06;94166.19;4882313;29;19928;-81
2022/04/23 09:02:56;;;;;;;;;;;;;;;18.10;67.03;94161.91;4881711;29;19930;-80
2022/04/23 09:05:27;;;;;;;;;;;;;;;17.95;67.44;94157.53;4883102;29;19932;-80
2022/04/23 09:07:56;;;;;;;;;;;;;;;17.98;66.75;94156.31;4881722;29;19934;-80
2022/04/23 09:10:42;;;;;;;;;;;;;;;18.17;66.84;94158.28;4882142;29;19932;-79
2022/04/23 09:13:10;;;;;;;;;;;;;;;18.49;66.36;94162.16;4883394;29;20015;-79
2022/04/23 09:24:18;;;;;;;;;;;;;;;20.57;64.66;94156.03;4843012;29;19957;-80
2022/04/23 09:26:44;;;;;;;;;;;;;;;21.47;60.05;94157.72;4843264;29;19928;-82
2022/04/23 09:29:18;;;;;;;;;;;;;;;21.69;56.74;94157.38;4843095;29;19928;-82
2022/04/23 09:31:44;;;;;;;;;;;;;;;21.67;54.39;94160.22;4843373;29;19928;-81
2022/04/23 09:34:18;;;;;;;;;;;;;;;21.23;53.99;94153.09;4842936;29;19928;-80
2022/04/23 09:36:48;;;;;;;;;;;;;;;21.18;58.91;94153.72;4842663;29;19936;-80
2022/04/23 09:39:15;;;;;;;;;;;;;;;21.10;56.28;94159.28;4842595;29;19939;-80
2022/04/23 09:41:42;;;;;;;;;;;;;;;20.98;57.57;94153.81;4827295;29;20015;-79
2022/04/23 09:44:09;;;;;;;;;;;;;;;21.16;57.63;94154.97;4842487;29;19929;-80
2022/04/23 09:46:44;;;;;;;;;;;;;;;21.16;57.29;94155.78;4842331;29;19978;-80
2022/04/23 09:49:12;;;;;;;;;;;;;;;21.09;54.95;94146.97;4842435;29;19928;-80
2022/04/23 09:51:38;;;;;;;;;;;;;;;21.01;56.83;94142.72;4844640;29;20014;-82
2022/04/23 09:54:05;;;;;;;;;;;;;;;21.09;55.92;94135.50;4881485;29;19935;-83
2022/04/23 09:59:35;;;;;;;;;;;;;;;20.94;54.01;94138.44;4880665;29;19931;-80
2022/04/23 10:02:03;;;;;;;;;;;;;;;20.99;56.15;94130.63;4881397;29;19965;-81
2022/04/23 10:04:31;;;;;;;;;;;;;;;21.16;55.59;94129.13;4881005;29;20340;-80
2022/04/23 10:07:01;;;;;;;;;;;;;;;21.14;54.83;94130.34;4880871;29;19934;-80
2022/04/23 10:09:28;;;;;;;;;;;;;;;21.07;54.30;94146.38;4881170;29;19928;-81
2022/04/23 10:11:58;;;;;;;;;;;;;;;20.94;55.27;94141.94;4880977;29;19983;-82
2022/04/23 10:14:25;;;;;;;;;;;;;;;20.96;56.28;94139.88;4879989;29;19928;-81
2022/04/23 10:16:53;;;;;;;;;;;;;;;20.97;55.21;94136.16;4880397;29;19951;-81
2022/04/23 10:19:22;;;;;;;;;;;;;;;20.99;54.76;94142.13;4881121;29;20399;-82
2022/04/23 10:21:54;;;;;;;;;;;;;;;21.10;56.69;94137.13;4880426;29;19949;-81
2022/04/23 10:24:24;;;;;;;;;;;;;;;21.54;68.48;94136.31;4881283;29;19996;-80
2022/04/23 10:26:52;;;;;;;;;;;;;;;21.82;60.92;94135.91;4880575;29;19932;-80
2022/04/23 10:29:21;;;;;;;;;;;;;;;22.36;56.07;94129.91;4894779;29;20171;-82
2022/04/23 10:32:03;;;;;;;;;;;;;;;22.73;52.85;94127.25;4881355;29;19928;-81
2022/04/23 10:34:31;;;;;;;;;;;;;;;22.95;52.43;94125.78;4881208;29;19928;-81
2022/04/23 10:37:14;;;;;;;;;;;;;;;22.99;50.39;94134.16;4881270;29;20023;-82
2022/04/23 10:39:40;;;;;;;;;;;;;;;22.84;50.22;94135.38;4880389;29;19938;-79
2022/04/23 10:42:07;;;;;;;;;;;;;;;22.55;49.84;94136.06;4880418;29;20379;-79
2022/04/23 10:44:37;;;;;;;;;;;;;;;22.32;50.18;94138.59;4880624;29;19935;-79
2022/04/23 10:47:11;;;;;;;;;;;;;;;21.99;51.96;94123.66;4880642;29;19927;-79
2022/04/23 10:49:39;;;;;;;;;;;;;;;21.85;52.01;94135.47;4880174;29;19928;-79
2022/04/23 10:52:06;;;;;;;;;;;;;;;22.00;54.08;94125.28;4880756;29;20296;-79
2022/04/23 10:54:51;;;;;;;;;;;;;;;22.15;53.53;94125.78;4894260;29;19984;-79
2022/04/23 10:57:18;;;;;;;;;;;;;;;22.08;51.62;94129.56;4880153;29;19927;-79
2022/04/23 10:59:45;;;;;;;;;;;;;;;21.87;50.30;94130.72;4880552;29;19928;-79
2022/04/23 11:02:29;;;;;;;;;;;;;;;21.68;51.52;94124.47;4880342;29;19935;-78
2022/04/23 11:13:27;;;;;;;;;;;;;;;20.93;56.67;94140.31;4880659;29;20304;-80
2022/04/23 11:16:10;;;;;;;;;;;;;;;21.07;55.84;94140.22;4893664;29;19928;-79
2022/04/23 11:18:37;;;;;;;;;;;;;;;21.18;56.33;94134.22;4879994;29;20042;-81
2022/04/23 11:27:37;;;;;;;;;;;;;;;21.68;53.03;94118.31;4862090;29;19953;-78
2022/04/23 11:30:04;;;;;;;;;;;;;;;21.85;52.21;94127.44;4861829;29;19928;-79
2022/04/23 11:32:31;;;;;;;;;;;;;;;21.97;52.85;94115.00;4864360;29;19932;-78
2022/04/23 11:34:58;;;;;;;;;;;;;;;22.08;50.76;94114.34;4865126;29;20002;-82
2022/04/23 11:37:31;;;;;;;;;;;;;;;22.02;50.73;94117.03;4847948;29;19928;-80
2022/04/23 11:40:04;;;;;;;;;;;;;;;22.04;49.84;94109.66;4865484;29;20394;-80
2022/04/23 11:42:37;;;;;;;;;;;;;;;22.07;49.88;94106.53;4865643;29;19932;-81
2022/04/23 11:45:05;;;;;;;;;;;;;;;22.00;50.24;94103.09;4865454;29;20284;-79
2022/04/23 11:47:33;;;;;;;;;;;;;;;21.71;50.64;94107.22;4864936;29;20387;-81
2022/04/23 11:56:05;;;;;;;;;;;;;;;21.09;52.08;94111.47;4864152;29;19931;-80
2022/04/23 11:58:33;;;;;;;;;;;;;;;20.99;54.09;94110.09;4865318;29;20284;-78
2022/04/23 12:01:00;;;;;;;;;;;;;;;21.11;59.10;94104.09;4864630;29;19935;-77
2022/04/23 12:03:26;;;;;;;;;;;;;;;21.12;53.82;94111.09;4864744;29;19928;-78
2022/04/23 12:05:58;;;;;;;;;;;;;;;21.00;51.05;94111.75;4864854;29;20345;-80
2022/04/23 12:08:24;;;;;;;;;;;;;;;20.92;52.56;94114.66;4865459;29;19928;-79
2022/04/23 12:10:51;;;;;;;;;;;;;;;20.78;53.51;94110.41;4865349;29;19932;-81
2022/04/23 12:13:18;;;;;;;;;;;;;;;20.55;53.77;94115.44;4847503;29;20692;-78
2022/04/23 12:15:46;;;;;;;;;;;;;;;20.07;56.00;94118.38;4847311;29;19932;-77
2022/04/23 12:18:14;;;;;;;;;;;;;;;19.71;58.82;94124.94;4864859;29;20287;-82
2022/04/23 12:20:42;;;;;;;;;;;;;;;19.54;59.28;94131.69;4865391;29;19932;-78
2022/04/23 12:23:08;;;;;;;;;;;;;;;19.41;59.99;94131.66;4864401;29;20257;-77
2022/04/23 12:25:36;;;;;;;;;;;;;;;19.36;61.27;94123.41;4868612;29;19928;-78
2022/04/23 12:40:43;;;;;;;;;;;;;;;19.32;63.76;94119.53;4881190;29;19927;-78
2022/04/23 12:41:56;;;;;;;;;;;;;;;19.45;57.65;94115.06;4897235;29;19998;-78
2022/04/23 12:44:24;;;;;;;;;;;;;;;19.46;56.32;94111.38;4898296;29;19999;-78
2022/04/23 12:46:58;;;;;;;;;;;;;;;19.50;55.94;94112.59;4900721;29;19928;-78
2022/04/23 12:49:25;;;;;;;;;;;;;;;19.62;57.59;94110.19;4901238;29;19936;-78
2022/04/23 12:51:53;;;;;;;;;;;;;;;19.73;55.58;94106.91;4901446;29;19931;-78
2022/04/23 12:54:21;;;;;;;;;;;;;;;19.82;57.86;94109.38;4901152;29;19970;-79
2022/04/23 12:56:48;;;;;;;;;;;;;;;19.88;55.56;94106.69;4901026;29;19935;-77
2022/04/23 12:59:14;;;;;;;;;;;;;;;19.92;55.30;94093.78;4900744;29;19928;-78
2022/04/23 13:01:41;;;;;;;;;;;;;;;19.97;54.63;94102.00;4898998;29;19950;-78
2022/04/23 13:04:11;;;;;;;;;;;;;;;20.08;54.72;94098.69;4900787;29;19928;-78
2022/04/23 13:09:21;;;;;;;;;;;;;;;20.22;54.34;94097.63;4900856;29;20370;-78
2022/04/23 13:11:49;;;;;;;;;;;;;;;20.22;52.82;94094.13;4901117;29;19934;-78
2022/04/23 13:14:16;;;;;;;;;;;;;;;20.23;54.01;94093.13;4900929;29;19927;-79
2022/04/23 13:16:44;;;;;;;;;;;;;;;20.22;53.41;94092.28;4898566;29;19947;-78
2022/04/23 13:19:12;;;;;;;;;;;;;;;20.22;53.40;94086.97;4900281;29;19934;-77
2022/04/23 13:21:38;;;;;;;;;;;;;;;20.16;53.01;94079.00;4900166;29;19928;-78
2022/04/23 13:24:05;;;;;;;;;;;;;;;20.25;55.58;94096.41;4900411;29;19931;-78
2022/04/23 13:26:32;;;;;;;;;;;;;;;20.30;53.33;94083.28;4900615;29;19938;-79
2022/04/23 13:28:59;;;;;;;;;;;;;;;20.36;52.79;94090.44;4900258;29;19927;-78
2022/04/23 13:31:26;;;;;;;;;;;;;;;20.42;52.99;94094.94;4900836;29;20287;-78
2022/04/23 13:33:52;;;;;;;;;;;;;;;20.41;51.67;94088.78;4901090;29;19932;-78
2022/04/23 13:36:20;;;;;;;;;;;;;;;20.46;51.73;94082.84;4900519;29;19934;-78
2022/04/23 13:38:47;;;;;;;;;;;;;;;20.54;52.95;94089.81;4900595;29;19931;-77
2022/04/23 13:41:16;;;;;;;;;;;;;;;20.63;52.81;94080.53;4900213;29;19927;-78
2022/04/23 13:43:43;;;;;;;;;;;;;;;20.73;51.12;94080.88;4900116;29;19931;-78
2022/04/23 13:46:10;;;;;;;;;;;;;;;20.84;51.59;94079.41;4900251;29;19927;-78
2022/04/23 13:48:38;;;;;;;;;;;;;;;20.89;50.43;94083.09;4900524;29;19927;-78
2022/04/23 13:51:05;;;;;;;;;;;;;;;20.94;51.58;94082.44;4900663;29;20014;-77
2022/04/23 13:53:33;;;;;;;;;;;;;;;20.95;50.09;94079.56;4900563;29;19927;-78
2022/04/23 13:56:00;;;;;;;;;;;;;;;21.02;52.01;94088.34;4899823;29;19927;-77
2022/04/23 13:58:26;;;;;;;;;;;;;;;21.07;51.17;94076.19;4900461;29;19927;-77
2022/04/23 14:00:53;;;;;;;;;;;;;;;21.16;51.32;94085.59;4899923;29;19931;-78
2022/04/23 14:11:33;;;;;;;;;;;;;;;21.21;49.93;94075.91;4899711;29;20019;-78
2022/04/23 14:14:01;;;;;;;;;;;;;;;21.23;48.96;94081.03;4899658;29;19928;-77
2022/04/23 14:16:27;;;;;;;;;;;;;;;21.13;49.06;94070.03;4882832;29;19932;-77
2022/04/23 14:18:54;;;;;;;;;;;;;;;21.16;49.13;94066.94;4881341;29;19935;-77
2022/04/23 14:21:21;;;;;;;;;;;;;;;21.17;48.95;94068.56;4880825;29;19934;-78
2022/04/23 14:23:49;;;;;;;;;;;;;;;21.09;48.79;94071.47;4881084;29;20030;-75
2022/04/23 14:26:15;;;;;;;;;;;;;;;21.15;51.27;94074.13;4894414;29;20371;-76
2022/04/23 14:28:42;;;;;;;;;;;;;;;21.21;48.55;94077.78;4899436;29;19928;-76
2022/04/23 14:31:09;;;;;;;;;;;;;;;21.28;49.63;94079.38;4899577;29;19950;-76
2022/04/23 14:33:35;;;;;;;;;;;;;;;21.36;47.78;94077.47;4897774;29;20295;-76
2022/04/23 14:36:03;;;;;;;;;;;;;;;21.42;48.72;94085.47;4897938;29;19935;-76
2022/04/23 14:38:30;;;;;;;;;;;;;;;21.33;47.38;94076.06;4898005;29;19933;-77
2022/04/23 14:40:58;;;;;;;;;;;;;;;21.22;47.09;94074.88;4898123;29;19933;-76
2022/04/23 14:43:26;;;;;;;;;;;;;;;21.18;48.46;94072.88;4898250;29;19934;-76
2022/04/23 14:45:53;;;;;;;;;;;;;;;21.20;47.42;94076.13;4897768;29;20022;-76
2022/04/23 14:48:20;;;;;;;;;;;;;;;21.22;47.38;94079.41;4895706;29;19928;-76
2022/04/23 14:53:31;;;;;;;;;;;;;;;20.98;48.71;94084.47;4897842;29;20274;-76
2022/04/23 14:55:59;;;;;;;;;;;;;;;20.80;48.28;94089.66;4899067;29;19927;-77
2022/04/23 14:58:27;;;;;;;;;;;;;;;20.74;48.60;94090.53;4898917;29;19975;-77
2022/04/23 15:00:55;;;;;;;;;;;;;;;20.79;50.86;94096.03;4898825;29;19927;-82
2022/04/23 15:03:21;;;;;;;;;;;;;;;20.76;47.56;94095.63;4866432;29;20393;-77
2022/04/23 15:05:48;;;;;;;;;;;;;;;20.77;48.71;94098.09;4899221;29;19935;-84
2022/04/23 15:08:18;;;;;;;;;;;;;;;20.78;48.25;94093.56;4899123;29;19981;-92
2022/04/23 15:10:44;;;;;;;;;;;;;;;20.73;48.23;94091.56;4899068;29;19927;-83
2022/04/23 15:13:13;;;;;;;;;;;;;;;20.66;49.29;94098.78;4899578;29;19928;-82
2022/04/23 15:15:40;;;;;;;;;;;;;;;20.50;49.44;94091.22;4899379;29;19927;-81
2022/04/23 15:18:07;;;;;;;;;;;;;;;20.39;49.83;94101.47;4865959;29;20288;-81
2022/04/23 15:20:35;;;;;;;;;;;;;;;20.11;50.11;94108.94;4898597;29;19931;-83
2022/04/23 15:23:01;;;;;;;;;;;;;;;20.04;51.15;94111.59;4898953;29;19927;-83
2022/04/23 15:25:28;;;;;;;;;;;;;;;19.89;51.71;94110.19;4898960;29;19927;-80
2022/04/23 15:27:55;;;;;;;;;;;;;;;19.78;53.17;94112.44;4899066;29;20267;-82
2022/04/23 15:30:26;;;;;;;;;;;;;;;19.84;53.05;94117.97;4898884;29;19928;-82
2022/04/23 15:32:53;;;;;;;;;;;;;;;19.87;53.31;94118.38;4898560;29;19938;-84
2022/04/23 15:35:20;;;;;;;;;;;;;;;19.86;53.42;94110.59;4898746;29;19931;-80
2022/04/23 15:37:46;;;;;;;;;;;;;;;19.84;54.16;94117.97;4898897;29;19928;-81
2022/04/23 15:40:13;;;;;;;;;;;;;;;19.86;53.09;94118.56;4898218;29;19946;-79
2022/04/23 15:42:47;;;;;;;;;;;;;;;19.84;53.00;94117.97;4898674;29;20011;-78
2022/04/23 15:45:14;;;;;;;;;;;;;;;19.79;53.80;94115.91;4866264;29;20284;-80
2022/04/23 15:47:42;;;;;;;;;;;;;;;19.76;53.26;94117.16;4898285;29;19935;-78
2022/04/23 15:50:08;;;;;;;;;;;;;;;19.69;53.12;94121.66;4898732;29;19961;-79
2022/04/23 15:52:35;;;;;;;;;;;;;;;19.70;53.08;94117.97;4881201;29;19927;-79
2022/04/23 15:55:02;;;;;;;;;;;;;;;19.66;53.18;94123.88;4896535;29;19935;-81
2022/04/23 15:57:29;;;;;;;;;;;;;;;19.58;53.22;94121.44;4898753;29;20017;-82
2022/04/23 15:59:56;;;;;;;;;;;;;;;19.56;53.76;94120.81;4898367;29;19928;-82
2022/04/23 16:02:23;;;;;;;;;;;;;;;19.52;53.70;94123.03;4881067;29;19931;-82
2022/04/23 16:04:51;;;;;;;;;;;;;;;19.49;53.84;94128.78;4898202;29;20007;-80
2022/04/23 16:07:17;;;;;;;;;;;;;;;19.42;53.91;94130.63;4898872;29;19927;-80
2022/04/23 16:09:44;;;;;;;;;;;;;;;19.39;54.70;94141.66;4898597;29;19931;-80